Time;durP1;ratioP1;P1;durP2;ratioP2;P2;SDS_P1;SDS_P2;PMS_P1;PMS_P2;Temp;Humidity;BMP_temperature;BMP_pressure;BME280_temperature;BME280_humidity;BME280_pressure;Samples;Min_cycle;Max_cycle;Signal;HPM_P1;HPM_P2
2023/10/30 00:05:29;;;;;;;31.20;13.60;;;;;;;-128.00;-1.00;-1.00;2;543184880;543184880;-28
2023/10/30 00:15:25;;;;;;;31.20;13.60;;;;;;;-128.00;-1.00;-1.00;2;588203111;588203111;-28
2023/10/30 00:22:57;;;;;;;31.20;13.60;;;;;;;-128.00;-1.00;-1.00;2;444151588;444151588;-29
2023/10/30 00:29:08;;;;;;;31.20;13.60;;;;;;;-128.00;-1.00;-1.00;2;363126145;363126145;-28
2023/10/30 00:40:27;;;;;;;31.20;13.60;;;;;;;-128.00;-1.00;-1.00;4;7505147;579194370;-31
2023/10/30 00:49:38;;;;;;;31.20;13.60;;;;;;;-128.00;-1.00;-1.00;2;543185634;543185634;-29
2023/10/30 00:59:34;;;;;;;31.20;13.60;;;;;;;-128.00;-1.00;-1.00;2;588196935;588196935;-31
2023/10/30 01:07:06;;;;;;;31.20;13.60;;;;;;;-128.00;-1.00;-1.00;2;444157350;444157350;-31
2023/10/30 01:13:17;;;;;;;31.20;13.60;;;;;;;-128.00;-1.00;-1.00;2;363123732;363123732;-31
2023/10/30 01:24:36;;;;;;;31.20;13.60;;;;;;;-128.00;-1.00;-1.00;4;7504994;579193893;-31
2023/10/30 01:33:47;;;;;;;31.20;13.60;;;;;;;-128.00;-1.00;-1.00;2;543187257;543187257;-31
2023/10/30 01:43:43;;;;;;;31.20;13.60;;;;;;;-128.00;-1.00;-1.00;2;588200194;588200194;-28
2023/10/30 01:51:17;;;;;;;31.20;13.60;;;;;;;-128.00;-1.00;-1.00;2;444151354;444151354;-29
2023/10/30 02:34:43;;;;;;;9.80;1.70;;;;;;;10.87;100.00;98386.52;103678;1284;614932;-30
2023/10/30 02:37:09;;;;;;;4.60;1.80;;;;;;;11.00;100.00;89245.17;103764;1294;192158;-31
2023/10/30 02:39:34;;;;;;;3.90;1.60;;;;;;;-131.34;11.96;20084.26;100624;1281;1002605;-30
2023/10/30 02:42:04;;;;;;;3.90;1.60;;;;;;;-128.00;-1.00;-1.00;66032;1283;21066022;-30
2023/10/30 02:44:30;;;;;;;6.00;1.20;;;;;;;-100.20;19.20;19677.04;101163;1284;1003835;-32
2023/10/30 02:46:55;;;;;;;5.40;1.60;;;;;;;-128.00;-1.00;-1.00;100335;1281;1039386;-32
2023/10/30 02:54:44;;;;;;;5.40;1.60;;;;;;;-128.00;-1.00;-1.00;65835;1284;360122795;-30
2023/10/30 02:58:45;;;;;;;5.40;1.60;;;;;;;-128.00;-1.00;-1.00;727;1304;145638974;-33
2023/10/30 03:06:31;;;;;;;5.40;1.60;;;;;;;-128.00;-1.00;-1.00;3;3003194;455809422;-30
2023/10/30 03:16:19;;;;;;;5.40;1.60;;;;;;;-128.00;-1.00;-1.00;2;579200882;579200882;-30
2023/10/30 03:23:51;;;;;;;5.40;1.60;;;;;;;-128.00;-1.00;-1.00;2;444150270;444150270;-33
2023/10/30 03:30:02;;;;;;;5.40;1.60;;;;;;;-128.00;-1.00;-1.00;2;363125802;363125802;-33
2023/10/30 03:41:21;;;;;;;5.40;1.60;;;;;;;-128.00;-1.00;-1.00;4;7504825;579204845;-30
2023/10/30 03:50:32;;;;;;;5.40;1.60;;;;;;;-128.00;-1.00;-1.00;2;543191992;543191992;-32
2023/10/30 03:59:09;;;;;;;5.40;1.60;;;;;;;-128.00;-1.00;-1.00;2;513446475;513446475;-30
2023/10/30 04:01:35;;;;;;;9.40;1.40;;;;;;;-128.00;-1.00;-1.00;35049;1298;41542849;-29
2023/10/30 04:04:23;;;;;;;9.40;1.40;;;;;;;-128.00;-1.00;-1.00;63878;1284;43300815;-30
2023/10/30 04:06:49;;;;;;;3.40;1.20;;;;;;;-128.00;-1.00;-1.00;45235;1300;42114810;-32
2023/10/30 04:09:14;;;;;;;4.60;1.30;;;;;;;-128.00;-1.00;-1.00;98187;1281;2104383;-32
2023/10/30 04:19:01;;;;;;;4.60;1.30;;;;;;;-128.00;-1.00;-1.00;93005;1284;4756824;-31
2023/10/30 04:25:20;;;;;;;4.60;1.30;;;;;;;-128.00;-1.00;-1.00;3;7505052;363131172;-33
2023/10/30 04:36:38;;;;;;;4.60;1.30;;;;;;;-128.00;-1.00;-1.00;4;7505252;579197219;-30
2023/10/30 04:45:49;;;;;;;4.60;1.30;;;;;;;-128.00;-1.00;-1.00;2;543188216;543188216;-30
2023/10/30 04:55:48;;;;;;;4.60;1.30;;;;;;;-128.00;-1.00;-1.00;2;588198260;588198260;-32
2023/10/30 05:03:20;;;;;;;4.60;1.30;;;;;;;-128.00;-1.00;-1.00;2;444149493;444149493;-31
2023/10/30 05:09:31;;;;;;;4.60;1.30;;;;;;;-128.00;-1.00;-1.00;2;363123951;363123951;-33
2023/10/30 05:20:50;;;;;;;4.60;1.30;;;;;;;-128.00;-1.00;-1.00;4;7505228;579196461;-33
2023/10/30 05:30:00;;;;;;;4.60;1.30;;;;;;;-128.00;-1.00;-1.00;2;543187674;543187674;-30
2023/10/30 05:39:56;;;;;;;4.60;1.30;;;;;;;-128.00;-1.00;-1.00;2;588197126;588197126;-33
2023/10/30 05:47:28;;;;;;;4.60;1.30;;;;;;;-128.00;-1.00;-1.00;2;444153222;444153222;-32
2023/10/30 05:53:39;;;;;;;4.60;1.30;;;;;;;-128.00;-1.00;-1.00;2;363124029;363124029;-30
2023/10/30 05:59:35;;;;;;;4.60;1.30;;;;;;;-128.00;-1.00;-1.00;4;7505118;262810112;-30
2023/10/30 06:11:15;;;;;;;4.60;1.30;;;;;;;-128.00;-1.00;-1.00;14999;1298;579195459;-33
2023/10/30 06:20:27;;;;;;;4.60;1.30;;;;;;;-128.00;-1.00;-1.00;2;543180532;543180532;-31
2023/10/30 06:30:23;;;;;;;4.60;1.30;;;;;;;-128.00;-1.00;-1.00;2;588197257;588197257;-30
2023/10/30 06:37:55;;;;;;;4.60;1.30;;;;;;;-128.00;-1.00;-1.00;2;444153784;444153784;-33
2023/10/30 06:44:06;;;;;;;4.60;1.30;;;;;;;-128.00;-1.00;-1.00;2;363120852;363120852;-33
2023/10/30 06:55:25;;;;;;;4.60;1.30;;;;;;;-128.00;-1.00;-1.00;4;7504872;579197944;-33
2023/10/30 07:04:10;;;;;;;4.60;1.30;;;;;;;-128.00;-1.00;-1.00;3469;1303;441153354;-30
2023/10/30 07:10:21;;;;;;;4.60;1.30;;;;;;;-128.00;-1.00;-1.00;2;363122976;363122976;-30
2023/10/30 07:20:14;;;;;;;4.60;1.30;;;;;;;-128.00;-1.00;-1.00;4;7505512;499415368;-30
2023/10/30 07:30:16;;;;;;;4.60;1.30;;;;;;;-128.00;-1.00;-1.00;3616;1295;585201771;-28
2023/10/30 07:37:48;;;;;;;4.60;1.30;;;;;;;-128.00;-1.00;-1.00;2;444152239;444152239;-28
2023/10/30 07:43:59;;;;;;;4.60;1.30;;;;;;;-128.00;-1.00;-1.00;2;363125914;363125914;-28
2023/10/30 07:52:35;;;;;;;4.60;1.30;;;;;;;-128.00;-1.00;-1.00;4;7505349;421834346;-30
2023/10/30 07:59:00;;;;;;;4.60;1.30;;;;;;;-128.00;-1.00;-1.00;9942;1297;360123030;-29
2023/10/30 08:07:15;;;;;;;4.60;1.30;;;;;;;-128.00;-1.00;-1.00;4;7505302;402377142;-29
2023/10/30 08:12:58;;;;;;;4.60;1.30;;;;;;;-128.00;-1.00;-1.00;7246;1285;208311816;-29
2023/10/30 08:15:28;;;;;;;4.60;1.30;;;;;;;-128.00;-1.00;-1.00;2892;1300;116122000;-29
2023/10/30 08:17:54;;;;;;;7.00;0.80;;;;;;;-128.00;-1.00;-1.00;100274;1283;1004400;-28
2023/10/30 08:20:19;;;;;;;3.10;1.00;;;;;;;-128.00;-1.00;-1.00;100322;1285;1002680;-31
2023/10/30 08:27:41;;;;;;;4.20;1.10;;;;;;;-128.00;-1.00;-1.00;85969;1281;298562973;-31
2023/10/30 08:30:07;;;;;;;4.30;1.00;;;;;;;-128.00;-1.00;-1.00;79923;1285;7345890;-28
2023/10/30 08:38:33;;;;;;;4.30;1.00;;;;;;;-128.00;-1.00;-1.00;27658;1286;440880169;-29
2023/10/30 08:44:44;;;;;;;4.30;1.00;;;;;;;-128.00;-1.00;-1.00;2;363128330;363128330;-30
2023/10/30 08:54:29;;;;;;;4.30;1.00;;;;;;;-128.00;-1.00;-1.00;4;7505025;492264522;-29
2023/10/30 09:00:58;;;;;;;4.30;1.00;;;;;;;-128.00;-1.00;-1.00;12182;1284;360123810;-29
2023/10/30 09:07:43;;;;;;;4.30;1.00;;;;;;;-128.00;-1.00;-1.00;10064;1296;303002959;-29
2023/10/30 09:10:34;;;;;;;4.30;1.00;;;;;;;-128.00;-1.00;-1.00;7887;1285;157184083;-30
2023/10/30 09:15:16;;;;;;;4.30;1.00;;;;;;;-128.00;-1.00;-1.00;734;1302;223280312;-32
2023/10/30 09:17:55;;;;;;;4.30;1.00;;;;;;;-128.00;-1.00;-1.00;1509;1303;102355160;-32
2023/10/30 09:25:36;;;;;;;4.30;1.00;;;;;;;-128.00;-1.00;-1.00;22758;1301;339722404;-32
2023/10/30 09:28:02;;;;;;;1.70;0.90;;;;;;;-128.00;-1.00;-1.00;95828;1284;3003745;-32
2023/10/30 09:30:30;;;;;;;2.10;0.80;;;;;;;-128.00;-1.00;-1.00;101099;1285;1002980;-30
2023/10/30 09:32:59;;;;;;;1.50;0.60;;;;;;;-128.00;-1.00;-1.00;60976;1285;45790310;-33
2023/10/30 09:35:29;;;;;;;3.60;0.70;;;;;;;-128.00;-1.00;-1.00;101091;1284;1005058;-31
2023/10/30 09:37:56;;;;;;;2.80;1.20;;;;;;;-128.00;-1.00;-1.00;96166;1286;3002814;-29
2023/10/30 09:40:25;;;;;;;6.00;0.80;;;;;;;-128.00;-1.00;-1.00;33821;1281;95896453;-32
2023/10/30 09:43:39;;;;;;;6.00;0.80;;;;;;;-131.34;19.20;18693.23;71078;1284;56886992;-29
2023/10/30 09:46:07;;;;;;;2.80;1.00;;;;;;;-128.00;-1.00;-1.00;98502;1282;2478853;-31
2023/10/30 09:48:33;;;;;;;5.60;0.90;;;;;;;-128.00;-1.00;-1.00;100320;1285;1055820;-31
2023/10/30 09:50:58;;;;;;;;;;;;;;;-128.00;-1.00;-1.00;100319;1284;1003664;-28
2023/10/30 09:53:25;;;;;;;3.30;1.00;;;;;;;-128.00;-1.00;-1.00;101098;1285;1002773;-28
2023/10/30 09:55:51;;;;;;;3.40;0.90;;;;;;;-128.00;-1.00;-1.00;101039;1285;1010585;-31
2023/10/30 09:58:17;;;;;;;3.30;0.80;;;;;;;-128.00;-1.00;-1.00;101016;1280;1002938;-28
2023/10/30 10:00:45;;;;;;;5.80;0.90;;;;;;;-128.00;-1.00;-1.00;101020;1284;1002762;-31
2023/10/30 10:03:12;;;;;;;2.40;0.80;;;;;;;-128.00;-1.00;-1.00;101169;1285;1013803;-35
2023/10/30 10:05:37;;;;;;;4.00;0.80;;;;;;;-128.00;-1.00;-1.00;101044;1281;1003512;-29
2023/10/30 10:08:04;;;;;;;6.50;0.90;;;;;;;-128.00;-1.00;-1.00;101078;1285;1002550;-30
2023/10/30 10:10:30;;;;;;;2.10;0.70;;;;;;;-128.00;-1.00;-1.00;100423;1284;1004103;-30
2023/10/30 10:12:57;;;;;;;5.90;1.00;;;;;;;-128.00;-1.00;-1.00;96245;1280;2859836;-28
2023/10/30 10:15:23;;;;;;;2.50;0.90;;;;;;;-128.00;-1.00;-1.00;24746;1285;80156259;-28
2023/10/30 10:17:48;;;;;;;;;;;;;;;-128.00;-1.00;-1.00;28126;1285;69610858;-28
2023/10/30 10:20:14;;;;;;;3.30;1.20;;;;;;;-128.00;-1.00;-1.00;100337;1285;1002454;-27
2023/10/30 10:22:40;;;;;;;5.90;0.80;;;;;;;-128.00;-1.00;-1.00;100411;1284;1003141;-28
2023/10/30 10:25:10;;;;;;;2.40;0.70;;;;;;;-128.00;-1.00;-1.00;100301;1280;1003421;-30
2023/10/30 10:27:37;;;;;;;8.30;0.90;;;;;;;-128.00;-1.00;-1.00;100286;1284;1038431;-30
2023/10/30 10:30:05;;;;;;;4.60;0.80;;;;;;;-128.00;-1.00;-1.00;100333;1285;1003890;-28
2023/10/30 10:32:32;;;;;;;2.40;0.70;;;;;;;-128.00;-1.00;-1.00;100355;1279;1058956;-33
2023/10/30 10:34:58;;;;;;;3.00;1.00;;;;;;;-128.00;-1.00;-1.00;100293;1279;1002879;-27
2023/10/30 10:37:23;;;;;;;2.80;0.70;;;;;;;-128.00;-1.00;-1.00;100279;1280;1003344;-30
2023/10/30 10:39:50;;;;;;;2.60;0.80;;;;;;;-128.00;-1.00;-1.00;100349;1280;1003045;-30
2023/10/30 10:42:20;;;;;;;3.40;1.00;;;;;;;-128.00;-1.00;-1.00;100378;1285;1045680;-30
2023/10/30 10:44:47;;;;;;;2.20;0.70;;;;;;;-128.00;-1.00;-1.00;100377;1285;1060000;-29
2023/10/30 10:47:12;;;;;;;2.20;0.80;;;;;;;-128.00;-1.00;-1.00;100391;1280;1003528;-32
2023/10/30 10:49:38;;;;;;;2.40;0.70;;;;;;;-128.00;-1.00;-1.00;100318;1280;1004917;-29
2023/10/30 10:52:05;;;;;;;2.30;0.70;;;;;;;-128.00;-1.00;-1.00;100346;1280;1002709;-29
2023/10/30 10:54:32;;;;;;;2.10;0.70;;;;;;;-128.00;-1.00;-1.00;100340;1282;1047208;-31
2023/10/30 10:56:57;;;;;;;2.20;1.10;;;;;;;-128.00;-1.00;-1.00;100318;1285;1003633;-32
2023/10/30 10:59:28;;;;;;;3.80;0.80;;;;;;;-128.00;-1.00;-1.00;100348;1286;1004060;-32
2023/10/30 11:01:55;;;;;;;3.70;1.00;;;;;;;-128.00;-1.00;-1.00;100275;1280;1013141;-29
2023/10/30 11:04:20;;;;;;;3.90;0.80;;;;;;;-128.00;-1.00;-1.00;100312;1285;1004317;-27
2023/10/30 11:06:50;;;;;;;5.50;0.80;;;;;;;-128.00;-1.00;-1.00;100366;1280;1003283;-27
2023/10/30 11:09:24;;;;;;;1.80;0.70;;;;;;;-128.00;-1.00;-1.00;100334;1280;1059346;-31
2023/10/30 11:12:21;;;;;;;2.90;0.70;;;;;;;-128.00;-1.00;-1.00;100346;1286;1059322;-33
2023/10/30 11:15:07;;;;;;;1.60;0.70;;;;;;;-128.00;-1.00;-1.00;100465;1280;1015486;-28
2023/10/30 11:17:32;;;;;;;4.20;0.80;;;;;;;-128.00;-1.00;-1.00;100461;1285;1038821;-28
2023/10/30 11:20:03;;;;;;;2.00;0.70;;;;;;;-128.00;-1.00;-1.00;100347;1280;1002711;-34
2023/10/30 11:22:40;;;;;;;2.60;0.70;;;;;;;-128.00;-1.00;-1.00;100524;1280;1055996;-28
2023/10/30 11:25:18;;;;;;;2.70;0.70;;;;;;;-128.00;-1.00;-1.00;100513;1284;1058097;-31
2023/10/30 11:27:44;;;;;;;2.40;0.70;;;;;;;-128.00;-1.00;-1.00;100653;1285;1006900;-28
2023/10/30 11:30:11;;;;;;;3.80;0.90;;;;;;;-128.00;-1.00;-1.00;100320;1285;1004463;-31
2023/10/30 11:32:52;;;;;;;2.80;0.80;;;;;;;-128.00;-1.00;-1.00;100303;1280;1060293;-33
2023/10/30 11:35:24;;;;;;;3.50;1.10;;;;;;;-128.00;-1.00;-1.00;100323;1285;1054787;-31
2023/10/30 11:37:51;;;;;;;3.90;0.80;;;;;;;-128.00;-1.00;-1.00;100291;1286;1057505;-31
2023/10/30 11:40:16;;;;;;;2.10;0.70;;;;;;;-128.00;-1.00;-1.00;100380;1285;1004332;-28
2023/10/30 11:42:43;;;;;;;3.70;0.80;;;;;;;-128.00;-1.00;-1.00;100367;1280;1003315;-30
2023/10/30 11:45:22;;;;;;;1.90;0.70;;;;;;;-128.00;-1.00;-1.00;100336;1280;1059968;-28
2023/10/30 11:48:05;;;;;;;4.40;0.70;;;;;;;-128.00;-1.00;-1.00;100343;1280;1056869;-29
2023/10/30 11:50:35;;;;;;;1.20;0.50;;;;;;;-128.00;-1.00;-1.00;100514;1280;1058348;-28
2023/10/30 11:53:08;;;;;;;5.60;0.70;;;;;;;-128.00;-1.00;-1.00;100249;1282;1013353;-31
2023/10/30 11:55:36;;;;;;;3.00;0.80;;;;;;;-128.00;-1.00;-1.00;100351;1287;1039348;-27
2023/10/30 11:58:01;;;;;;;3.00;0.70;;;;;;;-100.20;19.20;19677.04;101259;1280;1003016;-28
2023/10/30 12:00:26;;;;;;;3.30;0.90;;;;;;;-128.00;-1.00;-1.00;100380;1281;1003406;-28
2023/10/30 12:02:52;;;;;;;2.70;1.00;;;;;;;-128.00;-1.00;-1.00;100369;1284;1003305;-29
2023/10/30 12:05:18;;;;;;;6.60;0.90;;;;;;;-128.00;-1.00;-1.00;100443;1282;1013173;-31
2023/10/30 12:07:43;;;;;;;2.20;0.90;;;;;;;-128.00;-1.00;-1.00;100319;1280;1003012;-28
2023/10/30 12:10:09;;;;;;;3.20;0.70;;;;;;;-128.00;-1.00;-1.00;100229;1280;1003138;-29
2023/10/30 12:12:34;;;;;;;3.40;0.90;;;;;;;-128.00;-1.00;-1.00;100981;1282;1003326;-29
2023/10/30 12:15:00;;;;;;;2.30;0.70;;;;;;;-128.00;-1.00;-1.00;101031;1284;1004368;-31
2023/10/30 12:17:26;;;;;;;5.30;0.80;;;;;;;-128.00;-1.00;-1.00;101112;1285;1004099;-30
2023/10/30 12:19:51;;;;;;;4.10;1.20;;;;;;;-128.00;-1.00;-1.00;101151;1281;1004499;-32
2023/10/30 12:22:17;;;;;;;5.00;0.80;;;;;;;-128.00;-1.00;-1.00;101072;1280;1003903;-32
2023/10/30 12:24:43;;;;;;;1.90;0.80;;;;;;;-128.00;-1.00;-1.00;101104;1280;1002428;-31
2023/10/30 12:27:08;;;;;;;3.60;1.00;;;;;;;-128.00;-1.00;-1.00;100909;1284;1002760;-33
2023/10/30 12:29:34;;;;;;;3.30;0.60;;;;;;;-128.00;-1.00;-1.00;100602;1284;1003586;-32
2023/10/30 12:32:04;;;;;;;3.10;0.90;;;;;;;-128.00;-1.00;-1.00;100321;1280;1003174;-30
2023/10/30 12:34:34;;;;;;;2.90;0.80;;;;;;;-128.00;-1.00;-1.00;100228;1280;1039315;-27
2023/10/30 12:37:00;;;;;;;3.50;0.90;;;;;;;-128.00;-1.00;-1.00;100639;1282;1046538;-28
2023/10/30 12:39:26;;;;;;;3.80;0.90;;;;;;;-128.00;-1.00;-1.00;100613;1280;1002602;-28
2023/10/30 12:41:58;;;;;;;2.50;0.70;;;;;;;-128.00;-1.00;-1.00;100342;1282;1004197;-32
2023/10/30 12:44:27;;;;;;;2.90;0.80;;;;;;;-128.00;-1.00;-1.00;100395;1280;1058366;-29
2023/10/30 12:46:53;;;;;;;2.90;0.70;;;;;;;-128.00;-1.00;-1.00;100422;1283;1013590;-28
2023/10/30 12:49:18;;;;;;;2.30;0.80;;;;;;;-128.00;-1.00;-1.00;100844;1285;1003901;-31
2023/10/30 12:51:43;;;;;;;3.30;0.70;;;;;;;-128.00;-1.00;-1.00;101198;1282;1015316;-30
2023/10/30 12:54:09;;;;;;;3.70;0.80;;;;;;;-128.00;-1.00;-1.00;101134;1284;1004745;-30
2023/10/30 12:56:34;;;;;;;3.50;0.80;;;;;;;-128.00;-1.00;-1.00;101010;1285;1002756;-32
2023/10/30 12:59:00;;;;;;;4.30;1.00;;;;;;;-128.00;-1.00;-1.00;100956;1282;1003176;-30
2023/10/30 13:01:25;;;;;;;2.80;0.80;;;;;;;-128.00;-1.00;-1.00;101058;1280;1002631;-32
2023/10/30 13:03:51;;;;;;;6.60;0.90;;;;;;;-128.00;-1.00;-1.00;100698;1280;1003247;-32
2023/10/30 13:06:17;;;;;;;2.60;0.80;;;;;;;-128.00;-1.00;-1.00;100309;1280;1004258;-32
2023/10/30 13:08:42;;;;;;;5.30;1.00;;;;;;;-128.00;-1.00;-1.00;101142;1280;1002903;-28
2023/10/30 13:11:08;;;;;;;2.90;1.00;;;;;;;-128.00;-1.00;-1.00;101315;1284;1004229;-28
2023/10/30 13:13:34;;;;;;;3.10;0.80;;;;;;;-128.00;-1.00;-1.00;101113;1279;1003917;-30
2023/10/30 13:15:59;;;;;;;;;;;;;;;-128.00;-1.00;-1.00;101022;1280;1003584;-29
2023/10/30 13:18:24;;;;;;;2.90;0.90;;;;;;;-128.00;-1.00;-1.00;101152;1282;1003308;-33
2023/10/30 13:20:50;;;;;;;;;;;;;;;-128.00;-1.00;-1.00;101155;1280;1003420;-35
2023/10/30 13:23:21;;;;;;;2.40;0.80;;;;;;;-128.00;-1.00;-1.00;100795;1284;1002560;-33
2023/10/30 13:25:47;;;;;;;2.00;0.80;;;;;;;-128.00;-1.00;-1.00;100303;1282;1058501;-30
2023/10/30 13:28:13;;;;;;;3.90;1.30;;;;;;;-128.00;-1.00;-1.00;100317;1280;1004370;-29
2023/10/30 13:30:39;;;;;;;6.40;1.60;;;;;;;-128.00;-1.00;-1.00;100357;1282;1004318;-33
2023/10/30 13:33:04;;;;;;;7.00;1.90;;;;;;;-128.00;-1.00;-1.00;100420;1284;1005023;-32
2023/10/30 13:35:29;;;;;;;3.00;1.00;;;;;;;-128.00;-1.00;-1.00;100328;1281;1002999;-30
2023/10/30 13:37:55;;;;;;;7.90;1.20;;;;;;;-128.00;-1.00;-1.00;100302;1280;1002831;-29
2023/10/30 13:40:20;;;;;;;7.20;1.00;;;;;;;-128.00;-1.00;-1.00;100356;1283;1003016;-32
2023/10/30 13:42:45;;;;;;;4.40;1.20;;;;;;;-128.00;-1.00;-1.00;100398;1280;1003328;-29
2023/10/30 13:45:11;;;;;;;6.60;0.80;;;;;;;-128.00;-1.00;-1.00;100319;1282;1002802;-32
2023/10/30 13:47:36;;;;;;;;;;;;;;;-128.00;-1.00;-1.00;100337;1280;1002599;-29
2023/10/30 13:50:02;;;;;;;2.60;0.80;;;;;;;-128.00;-1.00;-1.00;100266;1282;1003011;-32
2023/10/30 14:31:34;;;;;;;3.10;1.40;;;;;;;18.11;77.01;98454.36;103739;1285;612548;-31
2023/10/30 14:33:59;;;;;;;2.70;1.10;;;;;;;18.07;77.75;98444.42;103816;1300;81420;-28
2023/10/30 14:36:25;;;;;;;4.50;0.90;;;;;;;17.96;78.93;98439.52;104137;1300;60433;-31
2023/10/30 14:38:50;;;;;;;4.90;1.40;;;;;;;17.85;79.31;98438.34;103845;1295;60415;-33
2023/10/30 14:41:15;;;;;;;2.60;1.10;;;;;;;17.70;79.87;98438.05;104165;1300;60626;-30
2023/10/30 14:43:42;;;;;;;2.50;0.80;;;;;;;17.51;80.28;98431.48;104074;1299;60390;-35
2023/10/30 14:46:08;;;;;;;6.90;2.60;;;;;;;-47.45;89.01;93036.38;104129;1283;181617;-27
2023/10/30 14:48:33;;;;;;;5.00;2.40;;;;;;;-128.00;-1.00;-1.00;101427;1284;1002875;-28
2023/10/30 14:50:59;;;;;;;8.70;5.00;;;;;;;-128.00;-1.00;-1.00;101293;1282;1002315;-30
2023/10/30 14:53:24;;;;;;;10.90;4.30;;;;;;;-128.00;-1.00;-1.00;101346;1282;1004384;-28
2023/10/30 14:55:53;;;;;;;8.50;3.10;;;;;;;-128.00;-1.00;-1.00;101058;1282;1003106;-31
2023/10/30 14:58:19;;;;;;;6.80;3.00;;;;;;;-128.00;-1.00;-1.00;101205;1284;1012709;-29
2023/10/30 15:00:45;;;;;;;13.70;8.80;;;;;;;-128.00;-1.00;-1.00;101400;1280;1002355;-29
2023/10/30 15:03:11;;;;;;;9.30;4.80;;;;;;;-128.00;-1.00;-1.00;101275;1279;1002874;-32
2023/10/30 15:05:36;;;;;;;242.70;129.60;;;;;;;-128.00;-1.00;-1.00;101333;1283;1002661;-28
2023/10/30 15:08:02;;;;;;;109.20;54.90;;;;;;;-128.00;-1.00;-1.00;101222;1280;1003016;-28
2023/10/30 15:10:27;;;;;;;433.80;255.30;;;;;;;-128.00;-1.00;-1.00;101231;1285;1002843;-29
2023/10/30 15:12:56;;;;;;;450.50;266.80;;;;;;;-128.00;-1.00;-1.00;101321;1283;1004192;-32
2023/10/30 15:15:22;;;;;;;603.00;402.30;;;;;;;-128.00;-1.00;-1.00;101295;1279;1006093;-32
2023/10/30 15:17:47;;;;;;;583.70;396.00;;;;;;;-128.00;-1.00;-1.00;101216;1280;1003108;-29
2023/10/30 15:20:14;;;;;;;434.10;279.60;;;;;;;-128.00;-1.00;-1.00;101300;1280;1002971;-29
2023/10/30 15:22:39;;;;;;;262.30;151.90;;;;;;;-128.00;-1.00;-1.00;101384;1279;1004106;-29
2023/10/30 15:25:05;;;;;;;85.00;37.40;;;;;;;-128.00;-1.00;-1.00;101344;1283;1004592;-29
2023/10/30 15:27:33;;;;;;;50.10;23.40;;;;;;;-128.00;-1.00;-1.00;101105;1285;1002930;-29
2023/10/30 15:30:00;;;;;;;49.10;24.90;;;;;;;-128.00;-1.00;-1.00;101331;1282;1003986;-29
2023/10/30 15:32:25;;;;;;;30.30;18.50;;;;;;;-128.00;-1.00;-1.00;101281;1283;1004371;-28
2023/10/30 15:34:51;;;;;;;27.50;14.80;;;;;;;-128.00;-1.00;-1.00;101199;1280;1003151;-30
2023/10/30 15:37:17;;;;;;;22.00;10.80;;;;;;;-128.00;-1.00;-1.00;101007;1280;1003711;-30
2023/10/30 15:39:43;;;;;;;21.40;13.10;;;;;;;-128.00;-1.00;-1.00;101174;1283;1002803;-30
2023/10/30 15:42:09;;;;;;;23.20;13.10;;;;;;;-128.00;-1.00;-1.00;101185;1283;1002718;-27
2023/10/30 15:44:34;;;;;;;34.90;16.00;;;;;;;-128.00;-1.00;-1.00;101186;1283;1003603;-30
2023/10/30 15:46:59;;;;;;;13.90;8.10;;;;;;;-128.00;-1.00;-1.00;101180;1279;1002918;-27
2023/10/30 15:49:25;;;;;;;41.60;31.10;;;;;;;-128.00;-1.00;-1.00;101155;1280;1002707;-27
2023/10/30 15:51:50;;;;;;;87.70;29.10;;;;;;;-128.00;-1.00;-1.00;101114;1280;1004105;-28
2023/10/30 15:54:16;;;;;;;91.30;26.40;;;;;;;-128.00;-1.00;-1.00;101264;1282;1002804;-31
2023/10/30 15:56:41;;;;;;;73.00;22.70;;;;;;;-128.00;-1.00;-1.00;101251;1283;1002974;-28
2023/10/30 15:59:06;;;;;;;57.40;20.00;;;;;;;-128.00;-1.00;-1.00;101202;1283;1002399;-31
2023/10/30 16:01:32;;;;;;;52.70;19.30;;;;;;;-128.00;-1.00;-1.00;101356;1280;1005357;-32
2023/10/30 16:03:58;;;;;;;45.30;17.90;;;;;;;-128.00;-1.00;-1.00;101163;1280;1002475;-28
2023/10/30 16:06:24;;;;;;;43.60;16.40;;;;;;;-128.00;-1.00;-1.00;101283;1280;1004072;-28
2023/10/30 16:08:49;;;;;;;33.60;15.20;;;;;;;-128.00;-1.00;-1.00;101280;1283;1002481;-31
2023/10/30 16:11:15;;;;;;;29.30;12.80;;;;;;;-128.00;-1.00;-1.00;101198;1283;1002722;-31
2023/10/30 16:13:40;;;;;;;22.40;10.90;;;;;;;-128.00;-1.00;-1.00;101325;1280;1003272;-32
2023/10/30 16:16:06;;;;;;;20.10;9.80;;;;;;;-128.00;-1.00;-1.00;101241;1280;1003412;-32
2023/10/30 16:18:31;;;;;;;;;;;;;;;-128.00;-1.00;-1.00;101255;1284;1003732;-31
2023/10/30 16:20:56;;;;;;;20.10;11.80;;;;;;;-128.00;-1.00;-1.00;101160;1279;1002456;-28
2023/10/30 16:23:22;;;;;;;27.90;14.40;;;;;;;-128.00;-1.00;-1.00;101170;1283;1002759;-28
2023/10/30 16:25:47;;;;;;;39.50;19.80;;;;;;;-128.00;-1.00;-1.00;101237;1279;1002919;-30
2023/10/30 16:28:13;;;;;;;28.30;13.60;;;;;;;-128.00;-1.00;-1.00;101227;1282;1003251;-32
2023/10/30 16:30:38;;;;;;;26.20;10.80;;;;;;;-128.00;-1.00;-1.00;101293;1283;1002866;-28
2023/10/30 16:33:04;;;;;;;33.50;15.90;;;;;;;-128.00;-1.00;-1.00;101224;1279;1003906;-28
2023/10/30 16:35:29;;;;;;;25.60;12.80;;;;;;;-128.00;-1.00;-1.00;101232;1280;1002691;-32
2023/10/30 16:37:55;;;;;;;88.00;34.70;;;;;;;-128.00;-1.00;-1.00;101331;1283;1002891;-31
2023/10/30 16:40:20;;;;;;;112.70;42.70;;;;;;;-128.00;-1.00;-1.00;101323;1283;1003809;-33
2023/10/30 16:42:45;;;;;;;106.70;46.20;;;;;;;-128.00;-1.00;-1.00;101158;1283;1004179;-31
2023/10/30 16:45:11;;;;;;;52.20;24.00;;;;;;;-128.00;-1.00;-1.00;101278;1279;1004175;-32
2023/10/30 16:47:39;;;;;;;39.70;20.20;;;;;;;-128.00;-1.00;-1.00;101278;1280;1002428;-32
2023/10/30 16:50:05;;;;;;;24.60;11.00;;;;;;;-128.00;-1.00;-1.00;101263;1279;1012835;-28
2023/10/30 16:52:31;;;;;;;17.10;9.30;;;;;;;-128.00;-1.00;-1.00;101317;1283;1002883;-28
2023/10/30 16:54:56;;;;;;;13.90;6.50;;;;;;;-128.00;-1.00;-1.00;101325;1283;1002726;-29
2023/10/30 16:57:21;;;;;;;12.40;6.50;;;;;;;-128.00;-1.00;-1.00;101259;1280;1002616;-27
2023/10/30 16:59:47;;;;;;;6.90;4.00;;;;;;;-128.00;-1.00;-1.00;101405;1280;1003043;-30
2023/10/30 17:02:12;;;;;;;8.20;4.40;;;;;;;-128.00;-1.00;-1.00;101233;1283;1002682;-31
2023/10/30 17:04:38;;;;;;;8.60;4.10;;;;;;;-128.00;-1.00;-1.00;101237;1279;1004729;-31
2023/10/30 17:07:04;;;;;;;12.60;5.20;;;;;;;-128.00;-1.00;-1.00;101291;1284;1003490;-28
2023/10/30 17:09:29;;;;;;;58.90;25.70;;;;;;;-128.00;-1.00;-1.00;101190;1283;1004271;-34
2023/10/30 17:11:55;;;;;;;122.50;45.10;;;;;;;-128.00;-1.00;-1.00;101196;1283;1003705;-29
2023/10/30 17:14:20;;;;;;;40.60;18.50;;;;;;;-128.00;-1.00;-1.00;101216;1280;1004459;-30
2023/10/30 17:16:46;;;;;;;25.00;12.00;;;;;;;-128.00;-1.00;-1.00;101376;1283;1003608;-31
2023/10/30 17:19:15;;;;;;;131.10;62.90;;;;;;;-128.00;-1.00;-1.00;101239;1280;1002941;-29
2023/10/30 17:21:40;;;;;;;198.70;81.60;;;;;;;-128.00;-1.00;-1.00;101221;1284;1013103;-29
2023/10/30 17:24:06;;;;;;;328.40;134.30;;;;;;;-128.00;-1.00;-1.00;101205;1283;1002325;-32
2023/10/30 17:26:31;;;;;;;307.80;116.70;;;;;;;-128.00;-1.00;-1.00;101188;1283;1003243;-29
2023/10/30 17:28:57;;;;;;;238.30;91.60;;;;;;;-128.00;-1.00;-1.00;101240;1283;1002769;-33
2023/10/30 17:31:22;;;;;;;327.50;142.60;;;;;;;-128.00;-1.00;-1.00;101325;1280;1003029;-30
2023/10/30 17:33:47;;;;;;;168.90;79.00;;;;;;;-128.00;-1.00;-1.00;101406;1279;1002760;-27
2023/10/30 17:36:13;;;;;;;168.20;96.10;;;;;;;-128.00;-1.00;-1.00;101289;1283;1002866;-27
2023/10/30 17:38:38;;;;;;;81.40;47.20;;;;;;;-128.00;-1.00;-1.00;101263;1283;1002366;-33
2023/10/30 17:41:04;;;;;;;53.90;34.70;;;;;;;-128.00;-1.00;-1.00;101219;1280;1002729;-29
2023/10/30 17:43:29;;;;;;;24.50;15.80;;;;;;;-128.00;-1.00;-1.00;101292;1283;1002455;-28
2023/10/30 17:45:55;;;;;;;16.90;8.40;;;;;;;-128.00;-1.00;-1.00;101133;1280;1002599;-32
2023/10/30 17:48:20;;;;;;;12.50;5.30;;;;;;;-128.00;-1.00;-1.00;101199;1281;1002174;-28
2023/10/30 17:50:46;;;;;;;13.10;5.30;;;;;;;-128.00;-1.00;-1.00;101281;1282;1003188;-31
2023/10/30 17:53:11;;;;;;;7.90;4.30;;;;;;;-128.00;-1.00;-1.00;101296;1283;1002942;-31
2023/10/30 17:55:37;;;;;;;7.90;3.50;;;;;;;-128.00;-1.00;-1.00;101273;1280;1002815;-28
2023/10/30 17:58:02;;;;;;;88.30;30.90;;;;;;;-128.00;-1.00;-1.00;101035;1284;1004746;-32
2023/10/30 18:00:28;;;;;;;;;;;;;;;-128.00;-1.00;-1.00;101178;1280;1002726;-29
2023/10/30 18:02:53;;;;;;;49.20;19.80;;;;;;;-128.00;-1.00;-1.00;101155;1280;1002205;-31
2023/10/30 18:05:19;;;;;;;30.10;13.70;;;;;;;-128.00;-1.00;-1.00;101354;1280;1004246;-31
2023/10/30 18:07:44;;;;;;;;;;;;;;;-128.00;-1.00;-1.00;101225;1282;1002646;-32
2023/10/30 18:10:10;;;;;;;31.40;16.50;;;;;;;-128.00;-1.00;-1.00;101270;1280;1003089;-29
2023/10/30 18:12:35;;;;;;;17.60;7.10;;;;;;;-128.00;-1.00;-1.00;101240;1280;1003011;-32